createdAt,value
2022-12-18T00:00:15.743Z,52.52
2022-12-18T00:02:44.208Z,52.42
2022-12-18T00:05:13.243Z,52.51
2022-12-18T00:07:41.665Z,52.40
2022-12-18T00:10:10.989Z,52.59
2022-12-18T00:12:45.108Z,52.37
2022-12-18T00:15:13.407Z,52.28
2022-12-18T00:17:41.812Z,52.73
2022-12-18T00:20:11.748Z,52.69
2022-12-18T00:22:40.035Z,52.46
2022-12-18T00:25:09.349Z,52.71
2022-12-18T00:27:37.612Z,52.67
2022-12-18T00:30:09.079Z,52.48
2022-12-18T00:32:38.067Z,53.08
2022-12-18T00:35:07.584Z,52.83
2022-12-18T00:37:36.372Z,53.04
2022-12-18T00:40:05.546Z,53.07
2022-12-18T00:42:51.333Z,53.09
2022-12-18T00:45:21.019Z,52.78
2022-12-18T00:47:49.300Z,52.80
2022-12-18T00:50:17.849Z,53.25
2022-12-18T00:52:46.159Z,52.92
2022-12-18T00:55:15.114Z,52.65
2022-12-18T00:57:43.760Z,52.89
2022-12-18T01:00:15.885Z,53.12
2022-12-18T01:02:45.751Z,53.04
2022-12-18T01:05:15.906Z,53.05
2022-12-18T01:07:44.329Z,53.19
2022-12-18T01:10:14.898Z,53.02
2022-12-18T01:12:44.023Z,53.22
2022-12-18T01:15:14.614Z,52.82
2022-12-18T01:17:42.984Z,53.13
2022-12-18T01:20:14.870Z,53.10
2022-12-18T01:22:43.169Z,53.06
2022-12-18T01:25:11.546Z,53.00
2022-12-18T01:27:39.800Z,53.05
2022-12-18T01:30:09.834Z,53.24
2022-12-18T01:32:38.141Z,53.17
2022-12-18T01:35:08.061Z,52.78
2022-12-18T01:37:37.724Z,52.79
2022-12-18T01:40:08.066Z,52.95
2022-12-18T01:42:36.380Z,53.11
2022-12-18T01:45:10.856Z,52.98
2022-12-18T01:47:43.661Z,53.10
2022-12-18T01:50:18.555Z,52.86
2022-12-18T01:52:52.476Z,53.25
2022-12-18T01:55:25.095Z,53.06
2022-12-18T01:57:56.756Z,53.09
2022-12-18T02:00:26.230Z,52.94
2022-12-18T02:02:55.361Z,53.22
2022-12-18T02:05:36.121Z,53.21
2022-12-18T02:08:12.616Z,52.83
2022-12-18T02:10:49.804Z,53.01
2022-12-18T02:13:24.215Z,52.91
2022-12-18T02:16:02.464Z,53.00
2022-12-18T02:18:35.801Z,53.14
2022-12-18T02:21:15.880Z,52.93
2022-12-18T02:23:53.266Z,52.72
2022-12-18T02:26:28.979Z,53.48
2022-12-18T02:29:02.950Z,53.20
2022-12-18T02:31:36.732Z,52.96
2022-12-18T02:34:08.944Z,53.24
2022-12-18T02:36:41.264Z,53.19
2022-12-18T02:39:13.248Z,53.33
2022-12-18T02:41:43.020Z,52.99
2022-12-18T02:44:14.592Z,53.23
2022-12-18T02:46:45.864Z,53.31
2022-12-18T02:49:33.086Z,53.12
2022-12-18T02:52:09.968Z,53.12
2022-12-18T02:54:54.560Z,53.21
2022-12-18T02:57:36.315Z,52.93
2022-12-18T03:00:09.697Z,52.95
2022-12-18T03:02:45.748Z,52.95
2022-12-18T03:05:19.687Z,52.99
2022-12-18T03:07:54.963Z,53.17
2022-12-18T03:10:30.580Z,53.37
2022-12-18T03:13:07.188Z,53.12
2022-12-18T03:15:40.400Z,52.88
2022-12-18T03:18:13.879Z,53.25
2022-12-18T03:20:45.876Z,53.24
2022-12-18T03:23:19.371Z,53.23
2022-12-18T03:25:48.368Z,53.20
2022-12-18T03:28:22.843Z,53.08
2022-12-18T03:30:57.321Z,53.42
2022-12-18T03:33:32.045Z,53.17
2022-12-18T03:36:00.276Z,53.16
2022-12-18T03:38:28.599Z,53.06
2022-12-18T03:41:03.827Z,53.34
2022-12-18T03:43:45.393Z,53.11
2022-12-18T03:46:20.653Z,53.28
2022-12-18T03:48:54.048Z,53.12
2022-12-18T03:51:29.923Z,53.14
2022-12-18T03:54:02.615Z,53.38
2022-12-18T03:56:34.628Z,53.02
2022-12-18T03:59:06.563Z,53.03
2022-12-18T04:01:40.890Z,53.00
2022-12-18T04:04:11.713Z,53.27
2022-12-18T04:06:41.007Z,53.19
2022-12-18T04:09:09.607Z,53.34
2022-12-18T04:11:37.971Z,53.17
2022-12-18T04:14:07.772Z,53.12
2022-12-18T04:16:36.800Z,53.08
2022-12-18T04:19:05.720Z,52.95
2022-12-18T04:21:34.198Z,53.09
2022-12-18T04:24:02.554Z,53.14
2022-12-18T04:26:30.779Z,53.37
2022-12-18T04:28:58.956Z,53.32
2022-12-18T04:31:28.951Z,53.04
2022-12-18T04:33:57.245Z,53.05
2022-12-18T04:36:25.474Z,52.87
2022-12-18T04:38:53.692Z,53.03
2022-12-18T04:41:21.912Z,53.10
2022-12-18T04:43:50.137Z,53.13
2022-12-18T04:46:18.541Z,52.72
2022-12-18T04:48:49.418Z,52.93
2022-12-18T04:51:20.850Z,53.08
2022-12-18T04:53:53.080Z,52.91
2022-12-18T04:56:21.486Z,53.06
2022-12-18T04:58:49.900Z,52.92
2022-12-18T05:01:20.339Z,52.75
2022-12-18T05:03:50.122Z,52.85
2022-12-18T05:06:18.379Z,52.93
2022-12-18T05:08:46.738Z,53.34
2022-12-18T05:11:17.730Z,52.74
2022-12-18T05:13:46.681Z,53.09
2022-12-18T05:16:16.299Z,53.18
2022-12-18T05:18:44.645Z,52.96
2022-12-18T05:21:14.340Z,52.86
2022-12-18T05:23:43.087Z,53.21
2022-12-18T05:26:18.178Z,53.06
2022-12-18T05:28:46.929Z,53.18
2022-12-18T05:31:15.668Z,52.84
2022-12-18T05:33:44.274Z,52.85
2022-12-18T05:36:14.131Z,52.94
2022-12-18T05:38:42.788Z,53.03
2022-12-18T05:41:12.033Z,53.00
2022-12-18T05:43:41.934Z,53.27
2022-12-18T05:46:13.965Z,53.13
2022-12-18T05:48:42.494Z,53.26
2022-12-18T05:51:15.434Z,53.20
2022-12-18T05:53:44.810Z,53.04
2022-12-18T05:56:15.760Z,53.17
2022-12-18T05:58:44.342Z,53.18
2022-12-18T06:01:15.792Z,53.42
2022-12-18T06:03:44.396Z,53.35
2022-12-18T06:06:19.867Z,52.94
2022-12-18T06:08:48.790Z,53.12
2022-12-18T06:11:21.460Z,53.45
2022-12-18T06:13:57.958Z,53.18
2022-12-18T06:16:27.474Z,53.13
2022-12-18T06:18:55.941Z,53.06
2022-12-18T06:21:25.564Z,53.09
2022-12-18T06:23:53.852Z,53.23
2022-12-18T06:26:27.596Z,53.40
2022-12-18T06:28:56.493Z,53.12
2022-12-18T06:31:24.949Z,53.24
2022-12-18T06:33:53.554Z,53.08
2022-12-18T06:36:22.337Z,53.46
2022-12-18T06:38:51.989Z,53.06
2022-12-18T06:41:22.921Z,53.40
2022-12-18T06:43:52.240Z,53.15
2022-12-18T06:46:22.823Z,53.37
2022-12-18T06:48:52.020Z,53.37
2022-12-18T06:51:22.607Z,53.12
2022-12-18T06:53:52.362Z,53.16
2022-12-18T06:56:20.768Z,53.22
2022-12-18T06:58:49.103Z,53.59
2022-12-18T07:01:17.440Z,53.33
2022-12-18T07:03:46.109Z,53.08
2022-12-18T07:06:19.829Z,52.85
2022-12-18T07:08:48.939Z,53.04
2022-12-18T07:11:19.540Z,52.97
2022-12-18T07:13:48.699Z,52.86
2022-12-18T07:16:24.824Z,52.91
2022-12-18T07:18:54.477Z,52.84
2022-12-18T07:21:23.756Z,52.92
2022-12-18T07:23:52.367Z,52.99
2022-12-18T07:26:23.409Z,53.20
2022-12-18T07:28:52.545Z,52.96
2022-12-18T07:31:23.631Z,53.06
2022-12-18T07:33:52.316Z,53.05
2022-12-18T07:36:28.483Z,52.79
2022-12-18T07:38:57.049Z,52.83
2022-12-18T07:41:26.686Z,52.88
2022-12-18T07:43:54.945Z,53.08
2022-12-18T07:46:23.474Z,53.13
2022-12-18T07:48:51.869Z,53.07
2022-12-18T07:51:20.991Z,53.18
2022-12-18T07:53:52.413Z,53.48
2022-12-18T07:56:29.998Z,53.39
2022-12-18T07:59:08.364Z,53.31
2022-12-18T08:01:36.801Z,53.62
2022-12-18T08:04:06.062Z,53.72
2022-12-18T08:06:34.479Z,53.42
2022-12-18T08:09:02.826Z,53.71
2022-12-18T08:11:31.311Z,54.11
2022-12-18T08:14:00.898Z,54.43
2022-12-18T08:16:29.357Z,54.22
2022-12-18T08:18:57.654Z,53.98
2022-12-18T08:21:28.810Z,54.08
2022-12-18T08:23:59.237Z,54.24
2022-12-18T08:26:30.388Z,53.82
2022-12-18T08:29:01.679Z,54.16
2022-12-18T08:31:32.024Z,53.87
2022-12-18T08:34:00.548Z,54.09
2022-12-18T08:36:29.042Z,53.89
2022-12-18T08:38:57.311Z,53.78
2022-12-18T08:41:25.819Z,54.10
2022-12-18T08:44:11.745Z,53.97
2022-12-18T08:46:44.262Z,53.82
2022-12-18T08:49:13.637Z,53.93
2022-12-18T08:51:42.435Z,53.80
2022-12-18T08:54:14.856Z,53.83
2022-12-18T08:56:43.205Z,53.71
2022-12-18T08:59:18.828Z,53.89
2022-12-18T09:01:49.651Z,53.83
2022-12-18T09:04:18.254Z,53.76
2022-12-18T09:06:46.529Z,53.55
2022-12-18T09:09:14.838Z,53.60
2022-12-18T09:11:43.254Z,53.52
2022-12-18T09:14:12.313Z,53.11
2022-12-18T09:16:40.674Z,53.23
2022-12-18T09:19:11.711Z,52.99
2022-12-18T09:21:44.806Z,53.16
2022-12-18T09:24:17.444Z,53.11
2022-12-18T09:26:47.101Z,53.02
2022-12-18T09:29:16.375Z,53.01
2022-12-18T09:31:47.160Z,53.12
2022-12-18T09:34:16.765Z,53.27
2022-12-18T09:36:45.250Z,52.87
2022-12-18T09:39:13.474Z,53.08
2022-12-18T09:41:54.587Z,53.08
2022-12-18T09:44:27.612Z,52.88
2022-12-18T09:47:13.177Z,53.00
2022-12-18T09:49:46.551Z,52.90
2022-12-18T09:52:21.958Z,53.31
2022-12-18T09:54:56.740Z,53.24
2022-12-18T09:57:26.752Z,53.22
2022-12-18T09:59:59.212Z,53.30
2022-12-18T10:02:29.027Z,53.30
2022-12-18T10:05:12.844Z,53.36
2022-12-18T10:07:59.625Z,52.89
2022-12-18T10:10:40.899Z,53.24
2022-12-18T10:13:20.593Z,52.95
2022-12-18T10:16:05.739Z,52.60
2022-12-18T10:19:16.950Z,52.64
2022-12-18T10:21:55.498Z,52.95
2022-12-18T10:24:33.455Z,53.18
2022-12-18T10:27:16.941Z,53.16
2022-12-18T10:29:47.376Z,53.10
2022-12-18T10:32:21.521Z,52.96
2022-12-18T10:34:55.352Z,52.96
2022-12-18T10:37:31.693Z,52.74
2022-12-18T10:40:21.930Z,52.86
2022-12-18T10:43:07.529Z,53.09
2022-12-18T10:45:36.064Z,53.47
2022-12-18T10:48:05.787Z,53.63
2022-12-18T10:51:09.720Z,53.76
2022-12-18T10:53:30.468Z,53.17
2022-12-18T10:56:05.205Z,53.06
2022-12-18T10:58:35.825Z,52.70
2022-12-18T11:01:12.570Z,52.62
2022-12-18T11:03:43.301Z,52.31
2022-12-18T11:06:14.676Z,51.93
2022-12-18T11:08:48.065Z,51.82
2022-12-18T11:11:24.058Z,51.06
2022-12-18T11:14:01.901Z,51.35
2022-12-18T11:16:32.694Z,50.96
2022-12-18T11:19:25.239Z,51.33
2022-12-18T11:21:53.818Z,51.45
2022-12-18T11:24:30.296Z,51.58
2022-12-18T11:27:01.367Z,51.33
2022-12-18T11:29:46.446Z,51.43
2022-12-18T11:32:36.491Z,51.30
2022-12-18T11:35:14.543Z,51.37
2022-12-18T11:37:49.677Z,51.39
2022-12-18T11:40:24.636Z,51.56
2022-12-18T11:43:00.440Z,51.82
2022-12-18T11:45:32.170Z,51.70
2022-12-18T11:48:07.379Z,51.73
2022-12-18T11:50:48.808Z,51.54
2022-12-18T11:53:17.154Z,51.45
2022-12-18T11:55:59.305Z,51.09
2022-12-18T11:58:45.287Z,50.89
2022-12-18T12:01:32.702Z,50.83
2022-12-18T12:04:39.988Z,50.73
2022-12-18T12:07:25.444Z,50.65
2022-12-18T12:10:04.029Z,50.57
2022-12-18T12:12:49.263Z,50.31
2022-12-18T12:15:32.829Z,50.11
2022-12-18T12:18:11.675Z,50.04
2022-12-18T12:20:52.366Z,49.97
2022-12-18T12:23:34.957Z,50.06
2022-12-18T12:26:08.662Z,50.10
2022-12-18T12:29:10.269Z,50.13
2022-12-18T12:32:04.213Z,50.01
2022-12-18T12:34:46.356Z,49.82
2022-12-18T12:37:27.966Z,49.90
2022-12-18T12:39:57.266Z,50.02
2022-12-18T12:42:50.999Z,49.79
2022-12-18T12:45:25.779Z,49.86
2022-12-18T12:47:55.615Z,49.63
2022-12-18T12:50:25.715Z,49.65
2022-12-18T12:52:56.837Z,49.77
2022-12-18T12:55:27.856Z,49.72
2022-12-18T12:58:08.063Z,49.58
2022-12-18T13:00:47.682Z,49.55
2022-12-18T13:03:32.568Z,49.46
2022-12-18T13:06:07.480Z,49.75
2022-12-18T13:08:56.057Z,49.54
2022-12-18T13:12:03.009Z,49.66
2022-12-18T13:14:34.976Z,49.67
2022-12-18T13:17:32.210Z,49.82
2022-12-18T13:20:14.512Z,49.79
2022-12-18T13:22:48.193Z,49.79
2022-12-18T13:25:40.509Z,49.85
2022-12-18T13:28:13.633Z,49.81
2022-12-18T13:31:01.545Z,49.96
2022-12-18T13:36:40.582Z,49.63
2022-12-18T13:39:35.320Z,49.57
2022-12-18T13:43:00.562Z,49.67
2022-12-18T13:45:48.202Z,49.84
2022-12-18T13:48:26.265Z,50.01
2022-12-18T13:51:01.539Z,50.03
2022-12-18T13:53:36.533Z,50.00
2022-12-18T13:56:06.253Z,49.87
2022-12-18T13:58:35.710Z,49.89
2022-12-18T14:01:05.675Z,49.95
2022-12-18T14:03:34.167Z,49.81
2022-12-18T14:06:08.291Z,49.90
2022-12-18T14:08:41.941Z,49.71
2022-12-18T14:11:23.257Z,49.79
2022-12-18T14:13:52.541Z,49.77
2022-12-18T14:16:20.920Z,49.73
2022-12-18T14:18:55.462Z,49.67
2022-12-18T14:21:30.480Z,49.66
2022-12-18T14:24:17.279Z,49.69
2022-12-18T14:26:50.318Z,49.61
2022-12-18T14:29:28.424Z,49.39
2022-12-18T14:32:17.467Z,49.53
2022-12-18T14:34:47.237Z,49.46
2022-12-18T14:37:19.304Z,49.36
2022-12-18T14:39:59.295Z,49.44
2022-12-18T14:42:29.213Z,49.27
2022-12-18T14:45:41.728Z,49.30
2022-12-18T14:48:22.851Z,49.32
2022-12-18T14:51:03.359Z,49.15
2022-12-18T14:53:40.502Z,49.05
2022-12-18T14:56:19.712Z,48.90
2022-12-18T14:58:50.792Z,48.90
2022-12-18T15:01:26.016Z,48.83
2022-12-18T15:03:55.849Z,48.81
2022-12-18T15:06:34.982Z,48.80
2022-12-18T15:09:08.498Z,48.68
2022-12-18T15:11:48.722Z,48.60
2022-12-18T15:14:41.949Z,48.58
2022-12-18T15:17:20.189Z,48.72
2022-12-18T15:19:51.015Z,48.44
2022-12-18T15:22:27.842Z,48.49
2022-12-18T15:24:59.315Z,48.46
2022-12-18T15:27:35.787Z,48.44
2022-12-18T15:30:23.778Z,48.43
2022-12-18T15:33:19.114Z,48.49
2022-12-18T15:35:47.438Z,48.39
2022-12-18T15:38:15.693Z,48.38
2022-12-18T15:40:45.321Z,48.49
2022-12-18T15:43:31.295Z,48.43
2022-12-18T15:46:00.227Z,48.39
2022-12-18T15:48:28.614Z,48.46
2022-12-18T15:50:59.491Z,48.45
2022-12-18T15:53:32.655Z,48.42
2022-12-18T15:56:19.917Z,48.34
2022-12-18T15:58:48.757Z,48.30
2022-12-18T16:01:30.183Z,48.36
2022-12-18T16:03:58.824Z,48.42
2022-12-18T16:06:30.496Z,48.26
2022-12-18T16:09:04.948Z,48.14
2022-12-18T16:11:41.173Z,48.34
2022-12-18T16:14:18.998Z,48.25
2022-12-18T16:16:47.999Z,48.37
2022-12-18T16:19:17.091Z,48.01
2022-12-18T16:21:45.986Z,48.26
2022-12-18T16:24:18.123Z,48.24
2022-12-18T16:26:47.894Z,48.34
2022-12-18T16:29:17.058Z,48.42
2022-12-18T16:31:45.511Z,48.12
2022-12-18T16:34:23.189Z,48.35
2022-12-18T16:36:54.333Z,48.26
2022-12-18T16:39:23.345Z,48.51
2022-12-18T16:41:54.725Z,48.47
2022-12-18T16:44:24.323Z,48.60
2022-12-18T16:46:52.613Z,48.19
2022-12-18T16:49:22.437Z,48.33
2022-12-18T16:51:50.788Z,48.16
2022-12-18T16:54:19.676Z,48.16
2022-12-18T16:56:49.890Z,48.49
2022-12-18T16:59:20.267Z,48.52
2022-12-18T17:01:48.952Z,48.15
2022-12-18T17:04:18.649Z,48.27
2022-12-18T17:06:51.733Z,48.39
2022-12-18T17:09:23.797Z,48.41
2022-12-18T17:11:52.151Z,48.23
2022-12-18T17:14:24.881Z,48.09
2022-12-18T17:17:19.611Z,48.36
2022-12-18T17:19:41.980Z,48.27
2022-12-18T17:22:10.292Z,48.17
2022-12-18T17:24:38.569Z,48.10
2022-12-18T17:27:08.573Z,48.37
2022-12-18T17:29:41.268Z,48.16
2022-12-18T17:32:12.409Z,48.26
2022-12-18T17:34:40.870Z,48.01
2022-12-18T17:37:09.433Z,48.27
2022-12-18T17:39:38.198Z,48.41
2022-12-18T17:42:06.813Z,48.01
2022-12-18T17:44:37.757Z,47.94
2022-12-18T17:47:06.653Z,47.92
2022-12-18T17:49:34.969Z,48.16
2022-12-18T17:52:03.241Z,48.28
2022-12-18T17:54:31.682Z,48.25
2022-12-18T17:57:00.008Z,48.39
2022-12-18T17:59:28.394Z,48.64
2022-12-18T18:01:58.243Z,48.10
2022-12-18T18:04:27.488Z,48.25
2022-12-18T18:06:55.726Z,48.45
2022-12-18T18:09:24.033Z,48.13
2022-12-18T18:12:09.760Z,48.30
2022-12-18T18:14:38.144Z,48.69
2022-12-18T18:17:08.504Z,48.43
2022-12-18T18:19:36.967Z,48.87
2022-12-18T18:22:07.247Z,48.38
2022-12-18T18:24:35.525Z,48.49
2022-12-18T18:27:03.775Z,48.69
2022-12-18T18:29:32.206Z,48.97
2022-12-18T18:32:00.767Z,48.96
2022-12-18T18:34:32.953Z,48.88
2022-12-18T18:37:01.360Z,48.73
2022-12-18T18:39:30.428Z,49.05
2022-12-18T18:41:59.362Z,49.18
2022-12-18T18:44:27.752Z,49.49
2022-12-18T18:46:57.623Z,49.41
2022-12-18T18:49:27.849Z,49.85
2022-12-18T18:52:00.279Z,49.55
2022-12-18T18:54:28.665Z,49.65
2022-12-18T18:57:19.972Z,50.34
2022-12-18T18:59:47.410Z,50.16
2022-12-18T19:02:17.416Z,50.22
2022-12-18T19:04:46.892Z,50.48
2022-12-18T19:07:20.336Z,50.62
2022-12-18T19:10:04.559Z,50.32
2022-12-18T19:12:52.470Z,50.15
2022-12-18T19:15:21.656Z,50.25
2022-12-18T19:17:50.032Z,50.64
2022-12-18T19:20:18.775Z,50.63
2022-12-18T19:22:55.380Z,50.71
2022-12-18T19:25:38.112Z,50.74
2022-12-18T19:28:13.487Z,50.60
2022-12-18T19:30:57.880Z,50.81
2022-12-18T19:33:44.595Z,50.67
2022-12-18T19:36:16.836Z,50.87
2022-12-18T19:38:47.429Z,50.76
2022-12-18T19:41:17.883Z,51.04
2022-12-18T19:43:47.445Z,50.88
2022-12-18T19:46:18.641Z,51.26
2022-12-18T19:48:47.413Z,51.38
2022-12-18T19:51:18.708Z,51.18
2022-12-18T19:53:50.548Z,51.44
2022-12-18T19:56:25.000Z,51.44
2022-12-18T19:58:54.290Z,51.66
2022-12-18T20:01:24.868Z,51.35
2022-12-18T20:03:54.493Z,51.54
2022-12-18T20:06:28.949Z,51.64
2022-12-18T20:09:01.862Z,51.80
2022-12-18T20:11:30.508Z,51.79
2022-12-18T20:14:02.269Z,51.64
2022-12-18T20:16:30.689Z,51.64
2022-12-18T20:19:00.050Z,51.42
2022-12-18T20:21:28.703Z,51.57
2022-12-18T20:24:00.013Z,51.64
2022-12-18T20:26:29.411Z,52.19
2022-12-18T20:28:58.000Z,51.64
2022-12-18T20:31:26.452Z,51.93
2022-12-18T20:33:59.650Z,52.20
2022-12-18T20:36:30.635Z,52.25
2022-12-18T20:39:01.586Z,51.75
2022-12-18T20:41:37.473Z,52.06
2022-12-18T20:44:21.991Z,52.00
2022-12-18T20:46:53.348Z,52.26
2022-12-18T20:49:21.706Z,52.16
2022-12-18T20:51:52.746Z,52.37
2022-12-18T20:54:23.155Z,52.31
2022-12-18T20:56:52.123Z,51.91
2022-12-18T20:59:20.530Z,51.90
2022-12-18T21:01:49.416Z,52.33
2022-12-18T21:04:19.162Z,51.96
2022-12-18T21:06:53.027Z,52.23
2022-12-18T21:09:24.159Z,52.31
2022-12-18T21:12:21.364Z,51.95
2022-12-18T21:14:49.634Z,51.91
2022-12-18T21:17:18.503Z,52.26
2022-12-18T21:19:46.788Z,52.09
2022-12-18T21:22:16.299Z,52.04
2022-12-18T21:24:46.154Z,52.63
2022-12-18T21:27:14.447Z,52.35
2022-12-18T21:29:47.061Z,52.48
2022-12-18T21:32:15.981Z,52.08
2022-12-18T21:34:48.032Z,52.13
2022-12-18T21:37:17.022Z,52.27
2022-12-18T21:39:48.585Z,52.43
2022-12-18T21:42:34.647Z,52.21
2022-12-18T21:45:02.949Z,52.22
2022-12-18T21:47:31.283Z,52.47
2022-12-18T21:49:59.592Z,52.57
2022-12-18T21:52:32.500Z,52.13
2022-12-18T21:55:09.113Z,52.57
2022-12-18T21:57:39.181Z,52.39
2022-12-18T22:00:18.538Z,52.58
2022-12-18T22:03:03.729Z,52.40
2022-12-18T22:05:36.742Z,52.60
2022-12-18T22:08:06.674Z,52.34
2022-12-18T22:10:36.877Z,52.46
2022-12-18T22:13:05.961Z,52.34
2022-12-18T22:15:34.670Z,52.27
2022-12-18T22:18:02.950Z,52.49
2022-12-18T22:20:31.196Z,52.50
2022-12-18T22:23:04.224Z,51.94
2022-12-18T22:25:39.233Z,51.93
2022-12-18T22:28:25.512Z,52.10
2022-12-18T22:30:59.113Z,52.02
2022-12-18T22:33:28.829Z,52.08
2022-12-18T22:35:57.327Z,52.26
2022-12-18T22:38:25.593Z,52.04
2022-12-18T22:40:56.286Z,52.08
2022-12-18T22:43:24.713Z,52.15
2022-12-18T22:45:52.909Z,52.16
2022-12-18T22:48:21.810Z,52.22
2022-12-18T22:50:50.049Z,52.14
2022-12-18T22:53:19.352Z,52.38
2022-12-18T22:55:47.750Z,52.21
2022-12-18T22:58:17.337Z,52.38
2022-12-18T23:00:45.614Z,52.12
2022-12-18T23:03:13.912Z,52.39
2022-12-18T23:05:42.187Z,52.19
2022-12-18T23:08:10.437Z,52.05
2022-12-18T23:10:39.484Z,52.31
2022-12-18T23:13:07.791Z,52.28
2022-12-18T23:15:43.268Z,52.37
2022-12-18T23:18:11.550Z,52.25
2022-12-18T23:20:40.021Z,52.28
2022-12-18T23:23:08.471Z,52.00
2022-12-18T23:25:36.812Z,52.30
2022-12-18T23:28:06.058Z,52.11
2022-12-18T23:30:36.317Z,52.03
2022-12-18T23:33:04.714Z,52.31
2022-12-18T23:35:33.149Z,52.37
2022-12-18T23:38:01.394Z,52.21
2022-12-18T23:40:30.551Z,52.36
2022-12-18T23:43:00.197Z,52.52
2022-12-18T23:45:28.670Z,52.30
2022-12-18T23:47:58.382Z,52.55
2022-12-18T23:50:29.580Z,52.46
2022-12-18T23:53:05.054Z,52.42
2022-12-18T23:55:39.620Z,52.58
2022-12-18T23:58:09.019Z,52.57
